Time,TemperatureF,DewpointF,PressureIn,WindDirection,WindDirectionDegrees,WindSpeedMPH,WindSpeedGustMPH,Humidity,HourlyPrecipIn,Conditions,Clouds,dailyrainin,SolarRadiationWatts/m^2,SoftwareType,DateUTC
2013-11-13 00:11:00,44.5,35.0,30.48,ENE,58,5.0,8.0,69,0.00,,,0.00,0,weatherlink.com 1.10,2013-11-13 07:11:00,
2013-11-13 00:26:00,44.4,35.0,30.48,NE,56,1.0,9.0,69,0.00,,,0.00,0,weatherlink.com 1.10,2013-11-13 07:26:00,
2013-11-13 00:41:00,44.4,34.0,30.47,NE,53,2.0,9.0,68,0.00,,,0.00,0,weatherlink.com 1.10,2013-11-13 07:41:00,
2013-11-13 00:56:00,44.3,34.0,30.47,NE,54,4.0,8.0,68,0.00,,,0.00,0,weatherlink.com 1.10,2013-11-13 07:56:00,
2013-11-13 01:11:00,44.2,34.0,30.47,NE,56,0.0,7.0,67,0.00,,,0.00,0,weatherlink.com 1.10,2013-11-13 08:11:00,
2013-11-13 01:26:00,44.3,34.0,30.47,NE,56,3.0,6.0,66,0.00,,,0.00,0,weatherlink.com 1.10,2013-11-13 08:26:00,
2013-11-13 01:41:00,44.4,34.0,30.46,NE,55,3.0,7.0,66,0.00,,,0.00,0,weatherlink.com 1.10,2013-11-13 08:41:00,
2013-11-13 01:56:00,44.6,34.0,30.45,NE,55,0.0,5.0,66,0.00,,,0.00,0,weatherlink.com 1.10,2013-11-13 08:56:00,
2013-11-13 02:11:00,44.8,34.0,30.45,NE,55,4.0,6.0,65,0.00,,,0.00,0,weatherlink.com 1.10,2013-11-13 09:11:00,
2013-11-13 02:26:00,44.9,33.0,30.45,NE,55,1.0,6.0,64,0.00,,,0.00,0,weatherlink.com 1.10,2013-11-13 09:26:00,
2013-11-13 02:41:00,44.9,33.0,30.44,NE,55,0.0,7.0,64,0.00,,,0.00,0,weatherlink.com 1.10,2013-11-13 09:41:00,
2013-11-13 02:56:00,44.9,33.0,30.44,NE,54,0.0,7.0,64,0.00,,,0.00,0,weatherlink.com 1.10,2013-11-13 09:56:00,
2013-11-13 03:11:00,45.0,33.0,30.44,NE,54,3.0,6.0,64,0.00,,,0.00,0,weatherlink.com 1.10,2013-11-13 10:11:00,
2013-11-13 03:26:00,45.0,33.0,30.43,NE,53,2.0,6.0,64,0.00,,,0.00,0,weatherlink.com 1.10,2013-11-13 10:26:00,
2013-11-13 03:41:00,45.1,33.0,30.43,NE,54,0.0,3.0,64,0.00,,,0.00,0,weatherlink.com 1.10,2013-11-13 10:41:00,
2013-11-13 03:56:00,45.2,34.0,30.43,NE,54,1.0,4.0,64,0.00,,,0.00,0,weatherlink.com 1.10,2013-11-13 10:56:00,
2013-11-13 04:11:00,45.4,34.0,30.43,NE,54,0.0,6.0,64,0.00,,,0.00,0,weatherlink.com 1.10,2013-11-13 11:11:00,
2013-11-13 04:26:00,45.5,34.0,30.43,NE,53,0.0,3.0,64,0.00,,,0.00,0,weatherlink.com 1.10,2013-11-13 11:26:00,
2013-11-13 04:41:00,45.7,34.0,30.43,NE,53,0.0,0.0,64,0.00,,,0.00,0,weatherlink.com 1.10,2013-11-13 11:41:00,
2013-11-13 04:56:00,45.6,34.0,30.43,NE,53,0.0,0.0,64,0.00,,,0.00,0,weatherlink.com 1.10,2013-11-13 11:56:00,
2013-11-13 05:11:00,45.5,34.0,30.44,NE,54,0.0,1.0,64,0.00,,,0.00,0,weatherlink.com 1.10,2013-11-13 12:11:00,
2013-11-13 05:26:00,45.4,34.0,30.44,NE,54,1.0,4.0,65,0.00,,,0.00,0,weatherlink.com 1.10,2013-11-13 12:26:00,
2013-11-13 05:41:00,45.4,34.0,30.43,NE,54,0.0,3.0,65,0.00,,,0.00,0,weatherlink.com 1.10,2013-11-13 12:41:00,
2013-11-13 05:56:00,45.5,34.0,30.43,NE,54,1.0,6.0,64,0.00,,,0.00,0,weatherlink.com 1.10,2013-11-13 12:56:00,
2013-11-13 06:11:00,45.6,34.0,30.43,NE,55,2.0,5.0,64,0.00,,,0.00,0,weatherlink.com 1.10,2013-11-13 13:11:00,
2013-11-13 06:26:00,45.6,34.0,30.43,NE,55,1.0,6.0,64,0.00,,,0.00,0,weatherlink.com 1.10,2013-11-13 13:26:00,
2013-11-13 06:41:00,45.8,34.0,30.43,NE,55,2.0,5.0,64,0.00,,,0.00,0,weatherlink.com 1.10,2013-11-13 13:41:00,
2013-11-13 06:56:00,45.8,34.0,30.43,NE,55,0.0,3.0,64,0.00,,,0.00,7,weatherlink.com 1.10,2013-11-13 13:56:00,
2013-11-13 07:11:00,45.7,35.0,30.43,NE,55,0.0,0.0,66,0.00,,,0.00,19,weatherlink.com 1.10,2013-11-13 14:11:00,
2013-11-13 07:26:00,45.1,36.0,30.44,NE,55,0.0,0.0,70,0.00,,,0.00,28,weatherlink.com 1.10,2013-11-13 14:26:00,
2013-11-13 07:41:00,44.6,37.0,30.44,NE,55,0.0,2.0,74,0.01,,,0.01,33,weatherlink.com 1.10,2013-11-13 14:41:00,
2013-11-13 07:56:00,45.0,37.0,30.44,NE,55,0.0,0.0,74,0.01,,,0.01,56,weatherlink.com 1.10,2013-11-13 14:56:00,
2013-11-13 08:11:00,45.2,37.0,30.44,NE,55,0.0,0.0,73,0.01,,,0.01,49,weatherlink.com 1.10,2013-11-13 15:11:00,
2013-11-13 08:26:00,45.4,37.0,30.44,NE,55,0.0,0.0,73,0.01,,,0.01,39,weatherlink.com 1.10,2013-11-13 15:26:00,
2013-11-13 08:41:00,45.5,38.0,30.44,NE,55,0.0,0.0,74,0.00,,,0.01,69,weatherlink.com 1.10,2013-11-13 15:41:00,
2013-11-13 08:56:00,45.8,38.0,30.43,NE,55,0.0,0.0,74,0.00,,,0.01,134,weatherlink.com 1.10,2013-11-13 15:56:00,
2013-11-13 09:11:00,46.8,39.0,30.43,NE,55,1.0,3.0,73,0.00,,,0.01,278,weatherlink.com 1.10,2013-11-13 16:11:00,
2013-11-13 09:27:00,48.5,39.0,30.43,NE,55,2.0,5.0,70,0.00,,,0.01,257,weatherlink.com 1.10,2013-11-13 16:27:00,
2013-11-13 09:42:00,49.4,39.0,30.42,NE,55,1.0,5.0,68,0.00,,,0.01,308,weatherlink.com 1.10,2013-11-13 16:42:00,
2013-11-13 09:57:00,49.7,39.0,30.42,ENE,62,3.0,5.0,66,0.00,,,0.01,190,weatherlink.com 1.10,2013-11-13 16:57:00,
2013-11-13 10:12:00,49.8,38.0,30.42,East,84,1.0,9.0,65,0.00,,,0.01,202,weatherlink.com 1.10,2013-11-13 17:12:00,
2013-11-13 10:27:00,49.8,37.0,30.41,East,98,0.0,9.0,62,0.00,,,0.01,213,weatherlink.com 1.10,2013-11-13 17:27:00,
2013-11-13 10:42:00,50.6,37.0,30.40,East,98,3.0,8.0,59,0.00,,,0.01,214,weatherlink.com 1.10,2013-11-13 17:42:00,
2013-11-13 11:12:00,52.1,37.0,30.37,East,88,3.0,9.0,57,0.00,,,0.01,341,weatherlink.com 1.10,2013-11-13 18:12:00,
2013-11-13 11:27:00,53.7,38.0,30.36,East,92,0.0,7.0,55,0.00,,,0.01,417,weatherlink.com 1.10,2013-11-13 18:27:00,
2013-11-13 11:42:00,54.4,38.0,30.35,East,97,1.0,9.0,54,0.00,,,0.01,313,weatherlink.com 1.10,2013-11-13 18:42:00,
2013-11-13 11:57:00,54.3,38.0,30.33,NE,52,1.0,9.0,54,0.00,,,0.01,350,weatherlink.com 1.10,2013-11-13 18:57:00,
2013-11-13 12:12:00,54.7,38.0,30.32,NE,53,3.0,7.0,54,0.00,,,0.01,406,weatherlink.com 1.10,2013-11-13 19:12:00,
2013-11-13 12:27:00,55.5,39.0,30.31,ENE,66,0.0,8.0,54,0.00,,,0.01,397,weatherlink.com 1.10,2013-11-13 19:27:00,
2013-11-13 12:42:00,56.3,39.0,30.29,ENE,67,4.0,8.0,53,0.00,,,0.01,475,weatherlink.com 1.10,2013-11-13 19:42:00,
2013-11-13 12:57:00,57.1,40.0,30.28,ENE,71,0.0,7.0,53,0.00,,,0.01,719,weatherlink.com 1.10,2013-11-13 19:57:00,
2013-11-13 13:12:00,57.9,41.0,30.27,East,82,3.0,9.0,53,0.00,,,0.01,272,weatherlink.com 1.10,2013-11-13 20:12:00,
2013-11-13 13:27:00,58.3,41.0,30.26,East,86,0.0,9.0,52,0.00,,,0.01,589,weatherlink.com 1.10,2013-11-13 20:27:00,
2013-11-13 13:42:00,59.2,41.0,30.25,East,88,1.0,7.0,51,0.00,,,0.01,524,weatherlink.com 1.10,2013-11-13 20:42:00,
2013-11-13 13:57:00,59.7,41.0,30.24,East,87,0.0,8.0,51,0.00,,,0.01,490,weatherlink.com 1.10,2013-11-13 20:57:00,
2013-11-13 14:13:00,59.9,42.0,30.22,East,90,0.0,9.0,51,0.00,,,0.01,461,weatherlink.com 1.10,2013-11-13 21:13:00,
2013-11-13 14:28:00,59.9,42.0,30.21,ESE,103,4.0,7.0,51,0.00,,,0.01,425,weatherlink.com 1.10,2013-11-13 21:28:00,
2013-11-13 14:43:00,59.8,41.0,30.20,ESE,111,1.0,8.0,51,0.00,,,0.01,371,weatherlink.com 1.10,2013-11-13 21:43:00,
2013-11-13 14:58:00,60.9,42.0,30.20,ESE,111,0.0,5.0,50,0.00,,,0.01,350,weatherlink.com 1.10,2013-11-13 21:58:00,
2013-11-13 15:13:00,60.5,42.0,30.20,ESE,115,0.0,9.0,50,0.00,,,0.01,311,weatherlink.com 1.10,2013-11-13 22:13:00,
2013-11-13 15:43:00,61.1,42.0,30.19,ENE,72,3.0,13.0,49,0.00,,,0.01,211,weatherlink.com 1.10,2013-11-13 22:43:00,
2013-11-13 15:58:00,61.2,42.0,30.19,East,79,1.0,7.0,49,0.00,,,0.01,155,weatherlink.com 1.10,2013-11-13 22:58:00,
2013-11-13 16:13:00,60.9,42.0,30.18,East,90,0.0,7.0,50,0.00,,,0.01,113,weatherlink.com 1.10,2013-11-13 23:13:00,
2013-11-13 16:28:00,60.0,41.0,30.18,East,95,6.0,9.0,50,0.00,,,0.01,56,weatherlink.com 1.10,2013-11-13 23:28:00,
2013-11-13 16:43:00,59.7,41.0,30.17,ESE,109,2.0,11.0,51,0.00,,,0.01,19,weatherlink.com 1.10,2013-11-13 23:43:00,
2013-11-13 16:58:00,59.3,41.0,30.17,ESE,109,1.0,8.0,52,0.00,,,0.01,9,weatherlink.com 1.10,2013-11-13 23:58:00,
2013-11-13 17:13:00,59.0,41.0,30.17,ESE,109,2.0,7.0,52,0.00,,,0.01,0,weatherlink.com 1.10,2013-11-14 00:13:00,
2013-11-13 17:28:00,59.0,42.0,30.17,ESE,109,1.0,5.0,53,0.00,,,0.01,0,weatherlink.com 1.10,2013-11-14 00:28:00,
2013-11-13 17:43:00,58.8,41.0,30.17,ESE,109,0.0,5.0,52,0.00,,,0.01,0,weatherlink.com 1.10,2013-11-14 00:43:00,
2013-11-13 17:58:00,57.8,41.0,30.18,ESE,109,0.0,2.0,53,0.00,,,0.01,0,weatherlink.com 1.10,2013-11-14 00:58:00,
2013-11-13 18:13:00,57.1,40.0,30.18,ESE,109,2.0,3.0,54,0.00,,,0.01,0,weatherlink.com 1.10,2013-11-14 01:13:00,
2013-11-13 18:28:00,56.6,40.0,30.18,ESE,109,0.0,0.0,55,0.00,,,0.01,0,weatherlink.com 1.10,2013-11-14 01:28:00,
2013-11-13 18:43:00,55.8,40.0,30.18,ESE,109,0.0,1.0,55,0.00,,,0.01,0,weatherlink.com 1.10,2013-11-14 01:43:00,
2013-11-13 18:58:00,54.9,39.0,30.18,ESE,109,1.0,2.0,56,0.00,,,0.01,0,weatherlink.com 1.10,2013-11-14 01:58:00,
2013-11-13 19:13:00,54.2,39.0,30.18,ESE,109,0.0,3.0,57,0.00,,,0.01,0,weatherlink.com 1.10,2013-11-14 02:13:00,
2013-11-13 19:28:00,54.0,39.0,30.18,ESE,109,0.0,4.0,58,0.00,,,0.01,0,weatherlink.com 1.10,2013-11-14 02:28:00,
2013-11-13 19:43:00,53.7,39.0,30.18,ESE,109,0.0,4.0,58,0.00,,,0.01,0,weatherlink.com 1.10,2013-11-14 02:43:00,
2013-11-13 19:58:00,53.6,39.0,30.17,ESE,109,0.0,5.0,59,0.00,,,0.01,0,weatherlink.com 1.10,2013-11-14 02:58:00,
2013-11-13 20:13:00,53.5,40.0,30.16,ESE,108,2.0,7.0,60,0.00,,,0.01,0,weatherlink.com 1.10,2013-11-14 03:13:00,
2013-11-13 20:28:00,53.2,39.0,30.16,ESE,108,0.0,4.0,60,0.00,,,0.01,0,weatherlink.com 1.10,2013-11-14 03:28:00,
2013-11-13 20:43:00,52.7,39.0,30.16,ESE,108,1.0,3.0,61,0.00,,,0.01,0,weatherlink.com 1.10,2013-11-14 03:43:00,
2013-11-13 20:58:00,52.6,40.0,30.16,ESE,107,0.0,0.0,62,0.00,,,0.01,0,weatherlink.com 1.10,2013-11-14 03:58:00,
2013-11-13 21:13:00,52.2,39.0,30.15,ESE,107,0.0,0.0,62,0.00,,,0.01,0,weatherlink.com 1.10,2013-11-14 04:13:00,
2013-11-13 21:28:00,52.3,40.0,30.15,ESE,108,0.0,4.0,63,0.00,,,0.01,0,weatherlink.com 1.10,2013-11-14 04:28:00,
2013-11-13 21:43:00,52.1,40.0,30.14,ESE,108,0.0,4.0,63,0.00,,,0.01,0,weatherlink.com 1.10,2013-11-14 04:43:00,
2013-11-13 21:58:00,52.2,40.0,30.14,ESE,107,0.0,2.0,64,0.00,,,0.01,0,weatherlink.com 1.10,2013-11-14 04:58:00,
2013-11-13 22:13:00,52.5,41.0,30.14,ESE,107,0.0,3.0,64,0.00,,,0.01,0,weatherlink.com 1.10,2013-11-14 05:13:00,
2013-11-13 22:28:00,52.4,40.0,30.14,ESE,108,0.0,1.0,63,0.00,,,0.01,0,weatherlink.com 1.10,2013-11-14 05:28:00,
2013-11-13 22:43:00,52.0,40.0,30.14,ESE,107,0.0,2.0,64,0.00,,,0.01,0,weatherlink.com 1.10,2013-11-14 05:43:00,
2013-11-13 22:58:00,51.8,40.0,30.13,ESE,108,0.0,3.0,64,0.00,,,0.01,0,weatherlink.com 1.10,2013-11-14 05:58:00,
2013-11-13 23:13:00,51.5,40.0,30.12,ESE,108,0.0,2.0,64,0.00,,,0.01,0,weatherlink.com 1.10,2013-11-14 06:13:00,
2013-11-13 23:28:00,51.0,40.0,30.12,ESE,108,0.0,1.0,65,0.00,,,0.01,0,weatherlink.com 1.10,2013-11-14 06:28:00,
2013-11-13 23:43:00,50.8,40.0,30.11,ESE,108,0.0,0.0,66,0.00,,,0.01,0,weatherlink.com 1.10,2013-11-14 06:43:00,
2013-11-13 23:58:00,50.6,40.0,30.10,ESE,108,0.0,0.0,67,0.00,,,0.01,0,weatherlink.com 1.10,2013-11-14 06:58:00,